createdAt,value
2019-03-31T00:01:33.272Z,38.70
2019-03-31T00:04:05.136Z,41.63
2019-03-31T00:06:37.348Z,39.25
2019-03-31T00:09:09.623Z,39.00
2019-03-31T00:11:43.190Z,39.95
2019-03-31T00:14:14.016Z,38.48
2019-03-31T00:16:44.655Z,40.67
2019-03-31T00:19:15.370Z,40.70
2019-03-31T00:21:52.038Z,41.55
2019-03-31T00:24:22.748Z,41.35
2019-03-31T00:26:53.424Z,40.95
2019-03-31T00:29:24.154Z,40.92
2019-03-31T00:31:55.079Z,45.28
2019-03-31T00:34:25.778Z,40.67
2019-03-31T00:36:56.775Z,42.90
2019-03-31T00:39:27.575Z,43.28
2019-03-31T00:41:58.347Z,41.28
2019-03-31T00:44:29.189Z,41.05
2019-03-31T00:47:02.239Z,44.38
2019-03-31T00:49:32.234Z,43.02
2019-03-31T00:52:02.968Z,41.88
2019-03-31T00:54:33.677Z,40.75
2019-03-31T00:57:04.423Z,38.80
2019-03-31T00:59:35.036Z,39.60
2019-03-31T01:02:11.811Z,38.75
2019-03-31T01:04:42.572Z,35.80
2019-03-31T01:07:13.442Z,37.13
2019-03-31T01:09:44.696Z,36.20
2019-03-31T01:12:15.352Z,36.20
2019-03-31T01:14:46.369Z,33.10
2019-03-31T01:17:19.060Z,30.62
2019-03-31T01:19:50.672Z,33.20
2019-03-31T01:22:21.372Z,30.43
2019-03-31T01:24:52.163Z,32.73
2019-03-31T01:27:23.317Z,32.17
2019-03-31T01:29:54.102Z,28.92
2019-03-31T01:32:25.031Z,31.87
2019-03-31T01:34:55.740Z,28.80
2019-03-31T01:37:26.551Z,32.35
2019-03-31T01:39:57.235Z,31.85
2019-03-31T01:42:27.996Z,32.48
2019-03-31T01:44:58.873Z,33.35
2019-03-31T01:47:29.643Z,35.30
2019-03-31T01:50:00.405Z,34.78
2019-03-31T01:52:31.032Z,37.78
2019-03-31T01:55:01.707Z,37.00
2019-03-31T01:57:32.372Z,38.50
2019-03-31T02:00:03.897Z,39.83
2019-03-31T02:02:35.072Z,41.02
2019-03-31T02:05:06.403Z,39.03
2019-03-31T02:07:37.160Z,40.03
2019-03-31T02:10:09.003Z,39.85
2019-03-31T02:12:39.781Z,40.83
2019-03-31T02:15:10.591Z,43.50
2019-03-31T02:17:41.293Z,41.25
2019-03-31T02:20:11.959Z,41.60
2019-03-31T02:22:43.523Z,39.58
2019-03-31T02:25:14.217Z,40.73
2019-03-31T02:27:44.880Z,42.25
2019-03-31T02:30:15.645Z,39.90
2019-03-31T02:32:46.328Z,41.85
2019-03-31T02:35:17.153Z,41.85
2019-03-31T02:37:47.871Z,41.98
2019-03-31T02:40:18.518Z,37.67
2019-03-31T02:42:49.186Z,36.63
2019-03-31T02:45:19.901Z,40.10
2019-03-31T02:47:50.597Z,37.73
2019-03-31T02:50:48.866Z,37.45
2019-03-31T02:53:20.878Z,38.67
2019-03-31T02:55:53.063Z,38.88
2019-03-31T02:58:23.801Z,35.73
2019-03-31T03:00:55.491Z,40.03
2019-03-31T03:03:27.864Z,38.02
2019-03-31T03:06:00.298Z,37.63
2019-03-31T03:08:33.721Z,38.05
2019-03-31T03:11:05.236Z,38.17
2019-03-31T03:13:36.793Z,37.88
2019-03-31T03:16:17.207Z,36.08
2019-03-31T03:18:48.758Z,37.30
2019-03-31T03:21:23.639Z,39.10
2019-03-31T03:23:53.306Z,39.35
2019-03-31T03:26:24.086Z,38.88
2019-03-31T03:28:54.921Z,37.00
2019-03-31T03:31:25.645Z,38.28
2019-03-31T03:33:56.366Z,37.75
2019-03-31T03:36:27.047Z,39.95
2019-03-31T03:38:57.829Z,38.25
2019-03-31T03:41:28.473Z,34.67
2019-03-31T03:44:02.374Z,39.05
2019-03-31T03:46:31.561Z,41.48
2019-03-31T03:49:02.377Z,40.92
2019-03-31T03:51:33.180Z,37.03
2019-03-31T03:54:03.985Z,39.60
2019-03-31T03:56:34.671Z,41.28
2019-03-31T03:59:05.555Z,39.38
2019-03-31T04:01:36.212Z,43.87
2019-03-31T04:04:06.926Z,43.63
2019-03-31T04:06:37.580Z,40.95
2019-03-31T04:09:08.270Z,37.50
2019-03-31T04:11:38.899Z,41.77
2019-03-31T04:14:09.688Z,37.20
2019-03-31T04:16:40.347Z,37.17
2019-03-31T04:19:11.115Z,36.28
2019-03-31T04:21:41.762Z,36.53
2019-03-31T04:24:12.446Z,35.68
2019-03-31T04:26:43.128Z,35.00
2019-03-31T04:29:13.843Z,33.33
2019-03-31T04:31:44.570Z,34.55
2019-03-31T04:34:15.275Z,35.20
2019-03-31T04:36:46.943Z,33.02
2019-03-31T04:39:17.648Z,35.92
2019-03-31T04:41:48.300Z,34.33
2019-03-31T04:44:18.981Z,29.82
2019-03-31T04:46:52.470Z,33.83
2019-03-31T04:49:23.182Z,31.82
2019-03-31T04:51:53.854Z,33.10
2019-03-31T04:54:24.531Z,31.27
2019-03-31T04:56:55.211Z,31.30
2019-03-31T04:59:26.013Z,30.02
2019-03-31T05:01:56.667Z,26.82
2019-03-31T05:04:27.381Z,27.13
2019-03-31T05:06:58.190Z,24.87
2019-03-31T05:09:28.896Z,25.40
2019-03-31T05:11:59.576Z,24.25
2019-03-31T05:14:30.434Z,24.45
2019-03-31T05:17:01.167Z,24.90
2019-03-31T05:19:31.862Z,24.98
2019-03-31T05:22:02.592Z,25.50
2019-03-31T05:24:33.315Z,22.20
2019-03-31T05:27:03.961Z,25.20
2019-03-31T05:29:34.635Z,23.10
2019-03-31T05:32:05.331Z,21.85
2019-03-31T05:34:36.025Z,23.30
2019-03-31T05:37:06.677Z,21.68
2019-03-31T05:39:37.392Z,20.65
2019-03-31T05:42:08.098Z,21.45
2019-03-31T05:44:38.779Z,19.82
2019-03-31T05:47:09.756Z,20.30
2019-03-31T05:49:40.554Z,20.97
2019-03-31T05:52:11.591Z,18.05
2019-03-31T05:54:42.250Z,19.60
2019-03-31T05:57:13.048Z,20.25
2019-03-31T05:59:43.843Z,19.50
2019-03-31T06:02:14.492Z,19.37
2019-03-31T06:04:46.256Z,17.73
2019-03-31T06:07:16.965Z,19.20
2019-03-31T06:09:47.642Z,20.30
2019-03-31T06:12:18.583Z,18.37
2019-03-31T06:14:49.227Z,19.35
2019-03-31T06:17:19.901Z,17.60
2019-03-31T06:19:50.637Z,17.92
2019-03-31T06:22:21.441Z,17.55
2019-03-31T06:24:52.178Z,17.10
2019-03-31T06:27:22.833Z,14.65
2019-03-31T06:29:53.583Z,14.85
2019-03-31T06:32:24.232Z,13.55
2019-03-31T06:34:54.969Z,13.90
2019-03-31T06:37:25.713Z,13.65
2019-03-31T06:39:56.474Z,11.55
2019-03-31T06:42:27.262Z,13.00
2019-03-31T06:44:58.276Z,11.20
2019-03-31T06:47:29.090Z,11.65
2019-03-31T06:50:02.690Z,11.28
2019-03-31T06:52:37.475Z,10.08
2019-03-31T06:55:10.980Z,10.40
2019-03-31T06:57:43.283Z,8.35
2019-03-31T07:00:14.763Z,9.35
2019-03-31T07:02:48.951Z,7.75
2019-03-31T07:05:22.157Z,6.80
2019-03-31T07:07:55.125Z,5.97
2019-03-31T07:10:27.369Z,5.72
2019-03-31T07:12:59.877Z,5.25
2019-03-31T07:15:30.853Z,5.70
2019-03-31T07:18:01.881Z,5.22
2019-03-31T07:20:34.097Z,4.47
2019-03-31T07:23:07.697Z,3.02
2019-03-31T07:25:38.493Z,3.77
2019-03-31T07:28:09.563Z,4.12
2019-03-31T07:30:40.237Z,3.50
2019-03-31T07:33:11.907Z,5.60
2019-03-31T07:35:42.796Z,4.95
2019-03-31T07:38:17.560Z,4.70
2019-03-31T07:40:48.342Z,5.22
2019-03-31T07:43:19.153Z,4.67
2019-03-31T07:45:50.428Z,5.08
2019-03-31T07:48:21.514Z,5.08
2019-03-31T07:50:57.588Z,4.83
2019-03-31T07:53:28.409Z,5.55
2019-03-31T07:56:04.282Z,3.67
2019-03-31T07:58:37.700Z,4.20
2019-03-31T08:01:08.467Z,3.20
2019-03-31T08:03:39.233Z,3.37
2019-03-31T08:06:13.187Z,1.98
2019-03-31T08:08:43.945Z,1.82
2019-03-31T08:11:18.890Z,1.25
2019-03-31T08:13:55.403Z,1.60
2019-03-31T08:16:27.888Z,1.20
2019-03-31T08:21:48.362Z,2.30
2019-03-31T08:24:21.421Z,1.02
2019-03-31T08:26:53.143Z,2.42
2019-03-31T08:29:24.009Z,1.10
2019-03-31T08:31:54.924Z,1.15
2019-03-31T08:34:28.208Z,1.15
2019-03-31T08:36:58.930Z,0.65
2019-03-31T08:39:29.655Z,0.82
2019-03-31T08:42:02.096Z,0.40
2019-03-31T08:44:32.918Z,0.50
2019-03-31T08:47:04.449Z,1.10
2019-03-31T08:49:36.164Z,1.07
2019-03-31T08:52:08.583Z,0.50
2019-03-31T08:54:39.420Z,0.90
2019-03-31T08:57:11.118Z,0.57
2019-03-31T08:59:44.390Z,0.60
2019-03-31T09:02:42.943Z,0.47
2019-03-31T09:05:14.014Z,0.20
2019-03-31T09:07:45.334Z,0.47
2019-03-31T09:10:17.270Z,0.20
2019-03-31T09:12:48.793Z,0.30
2019-03-31T09:15:20.987Z,0.28
2019-03-31T09:17:54.258Z,0.15
2019-03-31T09:20:24.110Z,0.10
2019-03-31T09:22:57.026Z,0.05
2019-03-31T09:25:28.829Z,0.10
2019-03-31T09:27:59.562Z,0.00
2019-03-31T09:30:30.244Z,0.00
2019-03-31T09:33:00.949Z,0.42
2019-03-31T09:35:32.717Z,0.00
2019-03-31T09:38:03.422Z,0.00
2019-03-31T09:40:35.704Z,0.00
2019-03-31T09:43:09.487Z,0.00
2019-03-31T09:45:40.269Z,0.00
2019-03-31T09:48:12.163Z,0.00
2019-03-31T09:50:42.892Z,0.00
2019-03-31T09:53:13.884Z,0.00
2019-03-31T09:55:44.612Z,0.00
2019-03-31T09:58:15.495Z,0.00
2019-03-31T10:00:48.264Z,0.00
2019-03-31T10:03:19.947Z,0.00
2019-03-31T10:05:50.783Z,0.00
2019-03-31T10:08:25.430Z,0.00
2019-03-31T10:10:56.157Z,0.00
2019-03-31T10:13:28.526Z,0.00
2019-03-31T10:15:59.168Z,0.00
2019-03-31T10:18:30.783Z,0.00
2019-03-31T10:21:01.940Z,0.00
2019-03-31T10:23:32.674Z,0.00
2019-03-31T10:26:07.667Z,0.00
2019-03-31T10:28:40.113Z,0.00
2019-03-31T10:31:11.926Z,0.00
2019-03-31T10:33:43.740Z,0.00
2019-03-31T10:36:14.470Z,0.00
2019-03-31T10:38:45.243Z,0.00
2019-03-31T10:41:16.868Z,0.08
2019-03-31T10:43:49.139Z,0.00
2019-03-31T10:46:19.899Z,0.00
2019-03-31T10:48:50.707Z,0.00
2019-03-31T10:51:22.903Z,0.00
2019-03-31T10:53:53.684Z,0.10
2019-03-31T10:56:24.517Z,0.00
2019-03-31T10:58:55.370Z,0.00
2019-03-31T11:01:27.403Z,0.00
2019-03-31T11:03:58.602Z,0.00
2019-03-31T11:06:29.923Z,0.00
2019-03-31T11:09:00.997Z,0.00
2019-03-31T11:11:33.405Z,0.00
2019-03-31T11:14:10.972Z,0.00
2019-03-31T11:16:41.288Z,0.20
2019-03-31T11:19:12.081Z,0.00
2019-03-31T11:21:57.273Z,0.00
2019-03-31T11:24:28.113Z,0.00
2019-03-31T11:26:58.849Z,0.00
2019-03-31T11:29:32.094Z,0.00
2019-03-31T11:32:02.928Z,0.00
2019-03-31T11:34:33.739Z,0.00
2019-03-31T11:37:13.391Z,0.35
2019-03-31T11:39:37.086Z,0.00
2019-03-31T11:42:17.561Z,0.00
2019-03-31T11:44:48.547Z,0.00
2019-03-31T11:47:23.133Z,0.00
2019-03-31T11:49:54.005Z,0.00
2019-03-31T11:52:24.766Z,0.00
2019-03-31T11:54:55.554Z,0.15
2019-03-31T11:57:26.316Z,0.00
2019-03-31T11:59:59.881Z,0.00
2019-03-31T12:02:30.584Z,0.00
2019-03-31T12:05:01.487Z,0.00
2019-03-31T12:07:47.026Z,0.00
2019-03-31T12:10:14.796Z,0.00
2019-03-31T12:12:49.322Z,0.00
2019-03-31T12:15:20.408Z,0.00
2019-03-31T12:17:51.173Z,0.00
2019-03-31T12:20:21.938Z,0.00
2019-03-31T12:22:53.714Z,0.00
2019-03-31T12:25:24.443Z,0.00
2019-03-31T12:27:55.261Z,0.00
2019-03-31T12:30:29.199Z,0.00
2019-03-31T12:33:02.831Z,0.00
2019-03-31T12:35:35.961Z,0.00
2019-03-31T12:38:06.663Z,0.00
2019-03-31T12:40:39.697Z,0.00
2019-03-31T12:43:10.363Z,0.00
2019-03-31T12:45:43.342Z,0.00
2019-03-31T12:48:14.417Z,0.20
2019-03-31T12:50:45.111Z,0.00
2019-03-31T12:53:17.326Z,0.00
2019-03-31T12:55:59.424Z,0.00
2019-03-31T12:58:20.405Z,0.00
2019-03-31T13:00:51.835Z,0.00
2019-03-31T13:03:22.588Z,0.00
2019-03-31T13:05:53.310Z,0.00
2019-03-31T13:08:25.166Z,0.00
2019-03-31T13:10:55.877Z,0.00
2019-03-31T13:13:26.637Z,0.00
2019-03-31T13:15:57.421Z,0.00
2019-03-31T13:18:28.395Z,0.00
2019-03-31T13:20:59.031Z,0.00
2019-03-31T13:23:29.903Z,0.00
2019-03-31T13:26:00.580Z,0.00
2019-03-31T13:28:31.289Z,0.00
2019-03-31T13:31:03.090Z,0.00
2019-03-31T13:33:33.982Z,0.00
2019-03-31T13:36:04.626Z,0.00
2019-03-31T13:38:35.463Z,0.00
2019-03-31T13:41:06.278Z,0.00
2019-03-31T13:43:37.009Z,0.00
2019-03-31T13:46:09.948Z,0.00
2019-03-31T13:48:40.731Z,0.00
2019-03-31T13:51:19.606Z,0.00
2019-03-31T13:53:51.093Z,0.00
2019-03-31T13:56:21.923Z,0.00
2019-03-31T13:58:53.226Z,0.00
2019-03-31T14:01:24.135Z,0.00
2019-03-31T14:03:55.073Z,0.00
2019-03-31T14:06:25.819Z,0.00
2019-03-31T14:08:56.488Z,0.00
2019-03-31T14:11:29.637Z,0.00
2019-03-31T14:14:00.677Z,0.10
2019-03-31T14:16:31.399Z,0.00
2019-03-31T14:19:02.070Z,0.00
2019-03-31T14:21:32.763Z,0.00
2019-03-31T14:24:03.542Z,0.00
2019-03-31T14:26:34.232Z,0.00
2019-03-31T14:29:04.925Z,0.00
2019-03-31T14:31:35.691Z,0.00
2019-03-31T14:34:06.378Z,0.00
2019-03-31T14:36:37.089Z,0.00
2019-03-31T14:39:09.486Z,0.00
2019-03-31T14:41:40.219Z,0.00
2019-03-31T14:44:11.035Z,0.00
2019-03-31T14:46:45.069Z,0.00
2019-03-31T14:49:17.419Z,0.10
2019-03-31T14:51:51.171Z,0.00
2019-03-31T14:54:21.939Z,0.00
2019-03-31T14:56:52.643Z,0.00
2019-03-31T14:59:23.947Z,0.00
2019-03-31T15:01:57.720Z,0.00
2019-03-31T15:04:29.605Z,0.00
2019-03-31T15:07:01.835Z,0.00
2019-03-31T15:09:32.526Z,0.00
2019-03-31T15:12:03.190Z,0.00
2019-03-31T15:14:34.208Z,0.00
2019-03-31T15:17:05.052Z,0.00
2019-03-31T15:19:39.041Z,0.00
2019-03-31T15:22:09.771Z,0.00
2019-03-31T15:24:40.459Z,0.00
2019-03-31T15:27:11.132Z,0.00
2019-03-31T15:29:44.208Z,0.00
2019-03-31T15:32:14.865Z,0.10
2019-03-31T15:34:45.545Z,0.00
2019-03-31T15:37:16.405Z,0.00
2019-03-31T15:39:47.089Z,0.00
2019-03-31T15:42:18.021Z,0.00
2019-03-31T15:44:49.171Z,0.00
2019-03-31T15:47:19.859Z,0.00
2019-03-31T15:49:50.692Z,0.00
2019-03-31T15:52:22.177Z,0.00
2019-03-31T15:54:52.936Z,0.00
2019-03-31T15:57:23.647Z,0.00
2019-03-31T15:59:54.410Z,0.00
2019-03-31T16:02:26.541Z,0.00
2019-03-31T16:04:57.314Z,0.00
2019-03-31T16:07:28.019Z,0.00
2019-03-31T16:09:58.230Z,0.00
2019-03-31T16:12:28.385Z,0.00
2019-03-31T16:14:58.556Z,0.00
2019-03-31T16:17:28.694Z,0.00
2019-03-31T16:19:58.789Z,0.00
2019-03-31T16:22:29.129Z,0.00
2019-03-31T16:25:00.697Z,0.00
2019-03-31T16:27:31.284Z,0.00
2019-03-31T16:30:01.603Z,0.00
2019-03-31T16:32:31.838Z,0.00
2019-03-31T16:35:05.866Z,0.00
2019-03-31T16:37:36.001Z,0.00
2019-03-31T16:40:06.601Z,0.00
2019-03-31T16:42:36.836Z,0.00
2019-03-31T16:45:10.233Z,0.00
2019-03-31T16:47:40.516Z,0.00
2019-03-31T16:50:10.888Z,0.00
2019-03-31T16:52:41.020Z,0.00
2019-03-31T16:55:11.868Z,0.00
2019-03-31T16:57:45.184Z,0.00
2019-03-31T17:00:15.707Z,0.00
2019-03-31T17:02:45.831Z,0.00
2019-03-31T17:05:22.129Z,0.00
2019-03-31T17:07:54.660Z,0.00
2019-03-31T17:10:24.893Z,0.00
2019-03-31T17:12:55.087Z,0.00
2019-03-31T17:15:25.368Z,0.00
2019-03-31T17:17:55.542Z,0.00
2019-03-31T17:20:25.592Z,0.00
2019-03-31T17:22:55.830Z,0.00
2019-03-31T17:25:27.290Z,0.00
2019-03-31T17:27:57.497Z,0.00
2019-03-31T17:30:27.650Z,0.08
2019-03-31T17:32:57.919Z,0.00
2019-03-31T17:35:28.214Z,0.00
2019-03-31T17:37:58.479Z,0.00
2019-03-31T17:40:28.806Z,0.00
2019-03-31T17:43:00.074Z,0.00
2019-03-31T17:45:33.908Z,0.10
2019-03-31T17:48:04.059Z,0.00
2019-03-31T17:50:37.534Z,0.00
2019-03-31T17:53:07.726Z,0.00
2019-03-31T17:55:37.891Z,0.00
2019-03-31T17:58:08.163Z,0.00
2019-03-31T18:00:38.629Z,0.00
2019-03-31T18:03:15.731Z,0.00
2019-03-31T18:05:48.802Z,0.00
2019-03-31T18:08:22.222Z,0.00
2019-03-31T18:10:53.718Z,0.23
2019-03-31T18:13:27.457Z,0.57
2019-03-31T18:16:08.042Z,0.00
2019-03-31T18:18:40.245Z,0.00
2019-03-31T18:21:12.054Z,0.28
2019-03-31T18:23:42.221Z,0.00
2019-03-31T18:26:21.491Z,0.00
2019-03-31T18:28:53.329Z,0.00
2019-03-31T18:31:25.825Z,0.00
2019-03-31T18:33:56.065Z,0.00
2019-03-31T18:36:36.583Z,0.00
2019-03-31T18:38:59.164Z,0.00
2019-03-31T18:41:33.791Z,0.00
2019-03-31T18:44:04.562Z,0.00
2019-03-31T18:46:37.724Z,0.00
2019-03-31T18:49:10.398Z,0.00
2019-03-31T18:51:45.701Z,0.00
2019-03-31T18:54:35.102Z,0.00
2019-03-31T18:57:26.825Z,0.10
2019-03-31T19:00:34.231Z,0.10
2019-03-31T19:03:26.359Z,0.40
2019-03-31T19:06:21.320Z,0.15
2019-03-31T19:09:25.174Z,0.00
2019-03-31T19:12:14.521Z,0.00
2019-03-31T19:15:05.584Z,0.00
2019-03-31T19:17:53.674Z,0.00
2019-03-31T19:20:49.034Z,0.00
2019-03-31T19:23:38.749Z,0.00
2019-03-31T19:26:29.058Z,0.00
2019-03-31T19:29:21.735Z,0.75
2019-03-31T19:32:14.751Z,0.00
2019-03-31T19:34:54.467Z,0.00
2019-03-31T19:37:46.829Z,0.00
2019-03-31T19:41:04.077Z,0.00
2019-03-31T19:43:45.943Z,0.00
2019-03-31T19:46:31.428Z,0.00
2019-03-31T19:49:33.075Z,0.00
2019-03-31T19:52:11.043Z,0.00
2019-03-31T19:55:01.846Z,0.00
2019-03-31T19:57:53.311Z,0.00
2019-03-31T20:00:51.810Z,0.00
2019-03-31T20:03:50.229Z,0.00
2019-03-31T20:06:38.129Z,0.00
2019-03-31T20:09:21.334Z,0.00
2019-03-31T20:12:19.659Z,0.00
2019-03-31T20:15:12.254Z,0.10
2019-03-31T20:17:59.612Z,0.00
2019-03-31T20:20:51.687Z,0.00
2019-03-31T20:23:44.027Z,0.00
2019-03-31T20:26:37.853Z,0.00
2019-03-31T20:29:20.828Z,0.30
2019-03-31T20:32:13.309Z,0.00
2019-03-31T20:35:01.677Z,0.00
2019-03-31T20:38:01.613Z,0.00
2019-03-31T20:40:39.929Z,0.00
2019-03-31T20:43:27.911Z,0.00
2019-03-31T20:45:58.801Z,0.00
2019-03-31T20:48:29.689Z,0.00
2019-03-31T20:50:59.887Z,0.00
2019-03-31T20:53:30.221Z,0.00
2019-03-31T20:56:00.511Z,0.75
2019-03-31T20:58:30.706Z,0.00
2019-03-31T21:01:01.005Z,0.00
2019-03-31T21:03:31.490Z,0.00
2019-03-31T21:06:01.918Z,0.10
2019-03-31T21:08:32.083Z,0.00
2019-03-31T21:11:02.225Z,0.00
2019-03-31T21:13:32.350Z,0.00
2019-03-31T21:16:02.570Z,0.00
2019-03-31T21:18:32.702Z,0.00
2019-03-31T21:21:03.197Z,0.00
2019-03-31T21:23:33.506Z,0.00
2019-03-31T21:26:03.895Z,0.00
2019-03-31T21:28:34.139Z,0.00
2019-03-31T21:31:04.320Z,0.00
2019-03-31T21:33:34.649Z,0.00
2019-03-31T21:36:05.088Z,0.17
2019-03-31T21:38:35.298Z,0.00
2019-03-31T21:41:05.518Z,0.00
2019-03-31T21:43:35.680Z,0.00
2019-03-31T21:46:08.215Z,0.00
2019-03-31T21:48:38.361Z,0.00
2019-03-31T21:51:08.498Z,0.00
2019-03-31T21:53:38.694Z,0.00
2019-03-31T21:56:08.835Z,0.00
2019-03-31T21:58:39.034Z,0.00
2019-03-31T22:01:09.286Z,0.05
2019-03-31T22:03:40.132Z,0.00
2019-03-31T22:06:11.982Z,0.00
2019-03-31T22:08:42.123Z,0.10
2019-03-31T22:11:12.382Z,0.10
2019-03-31T22:13:42.518Z,0.10
2019-03-31T22:16:12.756Z,0.10
2019-03-31T22:18:43.016Z,0.10
2019-03-31T22:21:13.152Z,0.00
2019-03-31T22:23:57.175Z,0.00
2019-03-31T22:26:15.160Z,0.10
2019-03-31T22:28:45.537Z,0.10
2019-03-31T22:31:15.780Z,0.00
2019-03-31T22:33:45.984Z,0.00
2019-03-31T22:36:22.258Z,0.00
2019-03-31T22:38:53.644Z,0.00
2019-03-31T22:41:23.766Z,0.20
2019-03-31T22:43:54.035Z,0.00
2019-03-31T22:46:24.131Z,0.00
2019-03-31T22:48:54.384Z,0.00
2019-03-31T22:51:24.480Z,0.00
2019-03-31T22:53:54.673Z,0.00
2019-03-31T22:56:25.039Z,0.00
2019-03-31T22:58:55.316Z,0.00
2019-03-31T23:01:28.453Z,0.00
2019-03-31T23:03:58.626Z,0.10
2019-03-31T23:06:28.753Z,0.00
2019-03-31T23:08:59.870Z,0.00
2019-03-31T23:11:32.298Z,0.00
2019-03-31T23:14:05.356Z,0.00
2019-03-31T23:16:35.704Z,0.20
2019-03-31T23:19:05.848Z,0.00
2019-03-31T23:21:37.132Z,0.00
2019-03-31T23:24:07.349Z,0.00
2019-03-31T23:26:38.430Z,0.00
2019-03-31T23:29:10.692Z,0.00
2019-03-31T23:31:40.789Z,0.00
2019-03-31T23:34:10.931Z,0.00
2019-03-31T23:36:41.061Z,0.00
2019-03-31T23:39:11.403Z,0.00
2019-03-31T23:41:41.678Z,0.00
2019-03-31T23:44:14.920Z,0.20
2019-03-31T23:46:45.225Z,0.00
2019-03-31T23:49:15.439Z,0.00
2019-03-31T23:51:45.593Z,0.00
2019-03-31T23:54:18.747Z,0.00
2019-03-31T23:56:50.517Z,0.00
2019-03-31T23:59:25.131Z,0.00
